sensor_id;sensor_type;location;lat;lon;timestamp;pressure;altitude;pressure_sealevel;temperature;humidity
53940;BME280;39850;43.324;21.916;2022-09-16T00:06:49;985.0;;;22.6;46.0
53940;BME280;39850;43.324;21.916;2022-09-16T00:11:32;985.0;;;22.6;46.0
53940;BME280;39850;43.324;21.916;2022-09-16T00:16:27;985.0;;;22.7;46.0
53940;BME280;39850;43.324;21.916;2022-09-16T00:21:12;985.0;;;22.7;46.0
53940;BME280;39850;43.324;21.916;2022-09-16T00:25:55;985.0;;;22.6;46.0
53940;BME280;39850;43.324;21.916;2022-09-16T00:30:33;985.0;;;22.6;46.0
53940;BME280;39850;43.324;21.916;2022-09-16T00:35:11;985.0;;;22.7;46.0
53940;BME280;39850;43.324;21.916;2022-09-16T00:39:49;985.0;;;22.7;46.0
53940;BME280;39850;43.324;21.916;2022-09-16T00:45:15;985.0;;;22.6;46.0
53940;BME280;39850;43.324;21.916;2022-09-16T00:50:10;985.0;;;22.6;46.0
53940;BME280;39850;43.324;21.916;2022-09-16T00:54:49;985.0;;;22.6;46.0
53940;BME280;39850;43.324;21.916;2022-09-16T01:30:51;985.0;;;21.8;56.0
53940;BME280;39850;43.324;21.916;2022-09-16T01:36:36;985.0;;;21.8;56.0
53940;BME280;39850;43.324;21.916;2022-09-16T01:42:14;985.0;;;21.8;56.0
53940;BME280;39850;43.324;21.916;2022-09-16T01:47:35;985.0;;;21.8;55.0
53940;BME280;39850;43.324;21.916;2022-09-16T01:52:57;985.0;;;21.8;55.0
53940;BME280;39850;43.324;21.916;2022-09-16T01:58:09;985.0;;;21.7;55.0
53940;BME280;39850;43.324;21.916;2022-09-16T02:03:18;985.0;;;21.7;55.0
53940;BME280;39850;43.324;21.916;2022-09-16T02:08:21;985.0;;;21.7;55.0
53940;BME280;39850;43.324;21.916;2022-09-16T02:13:30;985.0;;;21.7;55.0
53940;BME280;39850;43.324;21.916;2022-09-16T02:49:15;986.0;;;21.7;56.0
53940;BME280;39850;43.324;21.916;2022-09-16T02:54:39;986.0;;;21.7;56.0
53940;BME280;39850;43.324;21.916;2022-09-16T02:59:19;986.0;;;21.7;57.0
53940;BME280;39850;43.324;21.916;2022-09-16T03:03:58;986.0;;;21.7;57.0
53940;BME280;39850;43.324;21.916;2022-09-16T03:08:43;986.0;;;21.7;57.0
53940;BME280;39850;43.324;21.916;2022-09-16T03:14:28;986.0;;;21.7;57.0
53940;BME280;39850;43.324;21.916;2022-09-16T03:19:42;986.0;;;21.7;57.0
53940;BME280;39850;43.324;21.916;2022-09-16T03:25:08;986.0;;;21.7;57.0
53940;BME280;39850;43.324;21.916;2022-09-16T03:30:07;986.0;;;21.7;57.0
53940;BME280;39850;43.324;21.916;2022-09-16T03:35:00;986.0;;;21.7;57.0
53940;BME280;39850;43.324;21.916;2022-09-16T04:07:20;985.0;;;19.9;68.0
53940;BME280;39850;43.324;21.916;2022-09-16T04:11:56;985.0;;;19.9;68.0
53940;BME280;39850;43.324;21.916;2022-09-16T04:16:34;985.0;;;19.8;69.0
53940;BME280;39850;43.324;21.916;2022-09-16T04:21:11;985.0;;;19.8;69.0
53940;BME280;39850;43.324;21.916;2022-09-16T04:25:55;985.0;;;19.8;68.0
53940;BME280;39850;43.324;21.916;2022-09-16T04:30:35;985.0;;;19.8;68.0
53940;BME280;39850;43.324;21.916;2022-09-16T04:35:12;985.0;;;19.8;68.0
53940;BME280;39850;43.324;21.916;2022-09-16T04:39:49;985.0;;;19.8;69.0
53940;BME280;39850;43.324;21.916;2022-09-16T04:44:26;985.0;;;19.8;69.0
53940;BME280;39850;43.324;21.916;2022-09-16T04:49:03;985.0;;;19.8;68.0
53940;BME280;39850;43.324;21.916;2022-09-16T04:53:43;985.0;;;19.8;68.0
53940;BME280;39850;43.324;21.916;2022-09-16T05:26:20;985.0;;;20.0;72.0
53940;BME280;39850;43.324;21.916;2022-09-16T05:31:19;985.0;;;20.0;72.0
53940;BME280;39850;43.324;21.916;2022-09-16T05:36:14;985.0;;;19.9;71.0
53940;BME280;39850;43.324;21.916;2022-09-16T05:40:51;985.0;;;19.9;71.0
53940;BME280;39850;43.324;21.916;2022-09-16T05:45:28;985.0;;;19.9;71.0
53940;BME280;39850;43.324;21.916;2022-09-16T05:50:09;985.0;;;20.0;70.0
53940;BME280;39850;43.324;21.916;2022-09-16T05:54:45;985.0;;;20.0;70.0
53940;BME280;39850;43.324;21.916;2022-09-16T05:59:22;985.0;;;20.2;69.0
53940;BME280;39850;43.324;21.916;2022-09-16T06:04:08;985.0;;;20.2;69.0
53940;BME280;39850;43.324;21.916;2022-09-16T06:08:45;985.0;;;20.7;68.0
53940;BME280;39850;43.324;21.916;2022-09-16T06:13:22;985.0;;;20.7;68.0
53940;BME280;39850;43.324;21.916;2022-09-16T06:50:36;985.0;;;23.1;59.0
53940;BME280;39850;43.324;21.916;2022-09-16T06:55:13;985.0;;;23.1;59.0
53940;BME280;39850;43.324;21.916;2022-09-16T06:59:51;985.0;;;23.2;58.0
53940;BME280;39850;43.324;21.916;2022-09-16T07:04:28;985.0;;;23.2;58.0
53940;BME280;39850;43.324;21.916;2022-09-16T07:09:05;985.0;;;23.4;58.0
53940;BME280;39850;43.324;21.916;2022-09-16T07:13:47;985.0;;;23.4;58.0
53940;BME280;39850;43.324;21.916;2022-09-16T07:18:26;985.0;;;23.9;57.0
53940;BME280;39850;43.324;21.916;2022-09-16T07:23:03;985.0;;;23.9;57.0
53940;BME280;39850;43.324;21.916;2022-09-16T07:27:40;985.0;;;24.4;57.0
53940;BME280;39850;43.324;21.916;2022-09-16T07:32:17;985.0;;;24.4;57.0
53940;BME280;39850;43.324;21.916;2022-09-16T08:09:45;985.0;;;24.5;54.0
53940;BME280;39850;43.324;21.916;2022-09-16T08:14:22;985.0;;;24.5;54.0
53940;BME280;39850;43.324;21.916;2022-09-16T08:19:00;985.0;;;24.2;54.0
53940;BME280;39850;43.324;21.916;2022-09-16T08:23:42;985.0;;;24.2;54.0
53940;BME280;39850;43.324;21.916;2022-09-16T08:28:19;985.0;;;24.0;55.0
53940;BME280;39850;43.324;21.916;2022-09-16T08:32:59;985.0;;;24.0;55.0
53940;BME280;39850;43.324;21.916;2022-09-16T08:37:36;985.0;;;23.8;56.0
53940;BME280;39850;43.324;21.916;2022-09-16T08:43:07;985.0;;;23.8;56.0
53940;BME280;39850;43.324;21.916;2022-09-16T08:48:41;985.0;;;23.5;57.0
53940;BME280;39850;43.324;21.916;2022-09-16T08:53:50;985.0;;;23.5;57.0
53940;BME280;39850;43.324;21.916;2022-09-16T09:31:12;986.0;;;23.7;63.0
53940;BME280;39850;43.324;21.916;2022-09-16T09:37:01;986.0;;;23.7;64.0
53940;BME280;39850;43.324;21.916;2022-09-16T09:42:27;986.0;;;23.7;64.0
53940;BME280;39850;43.324;21.916;2022-09-16T09:47:32;986.0;;;23.7;64.0
53940;BME280;39850;43.324;21.916;2022-09-16T09:52:43;986.0;;;23.7;64.0
53940;BME280;39850;43.324;21.916;2022-09-16T09:57:58;986.0;;;23.2;64.0
53940;BME280;39850;43.324;21.916;2022-09-16T10:02:48;986.0;;;23.2;64.0
53940;BME280;39850;43.324;21.916;2022-09-16T10:07:27;986.0;;;22.6;65.0
53940;BME280;39850;43.324;21.916;2022-09-16T10:12:06;986.0;;;22.6;65.0
53940;BME280;39850;43.324;21.916;2022-09-16T10:51:52;985.0;;;23.4;64.0
53940;BME280;39850;43.324;21.916;2022-09-16T10:56:50;985.0;;;23.4;64.0
53940;BME280;39850;43.324;21.916;2022-09-16T11:02:41;985.0;;;23.4;64.0
53940;BME280;39850;43.324;21.916;2022-09-16T11:08:15;985.0;;;23.5;64.0
53940;BME280;39850;43.324;21.916;2022-09-16T11:14:52;985.0;;;23.5;64.0
53940;BME280;39850;43.324;21.916;2022-09-16T11:20:48;985.0;;;23.7;64.0
53940;BME280;39850;43.324;21.916;2022-09-16T11:26:05;985.0;;;23.7;64.0
53940;BME280;39850;43.324;21.916;2022-09-16T11:31:19;985.0;;;23.7;64.0
53940;BME280;39850;43.324;21.916;2022-09-16T11:36:58;985.0;;;23.7;64.0
53940;BME280;39850;43.324;21.916;2022-09-16T12:12:24;985.0;;;22.9;62.0
53940;BME280;39850;43.324;21.916;2022-09-16T12:17:25;986.0;;;22.8;63.0
53940;BME280;39850;43.324;21.916;2022-09-16T12:22:26;986.0;;;22.8;63.0
53940;BME280;39850;43.324;21.916;2022-09-16T12:27:46;986.0;;;22.7;63.0
53940;BME280;39850;43.324;21.916;2022-09-16T12:33:00;986.0;;;22.7;63.0
53940;BME280;39850;43.324;21.916;2022-09-16T12:37:52;986.0;;;22.6;64.0
53940;BME280;39850;43.324;21.916;2022-09-16T12:43:43;986.0;;;22.6;64.0
53940;BME280;39850;43.324;21.916;2022-09-16T12:50:27;986.0;;;22.7;65.0
53940;BME280;39850;43.324;21.916;2022-09-16T12:56:25;986.0;;;22.7;65.0
53940;BME280;39850;43.324;21.916;2022-09-16T13:40:31;985.0;;;20.8;82.0
53940;BME280;39850;43.324;21.916;2022-09-16T13:45:44;985.0;;;20.8;82.0
53940;BME280;39850;43.324;21.916;2022-09-16T13:50:27;986.0;;;20.8;80.0
53940;BME280;39850;43.324;21.916;2022-09-16T13:55:26;986.0;;;20.8;80.0
53940;BME280;39850;43.324;21.916;2022-09-16T14:00:22;986.0;;;20.8;80.0
53940;BME280;39850;43.324;21.916;2022-09-16T14:05:54;986.0;;;20.8;80.0
53940;BME280;39850;43.324;21.916;2022-09-16T14:11:08;986.0;;;20.8;79.0
53940;BME280;39850;43.324;21.916;2022-09-16T14:15:58;986.0;;;20.8;79.0
53940;BME280;39850;43.324;21.916;2022-09-16T14:49:19;984.0;;;20.8;79.0
53940;BME280;39850;43.324;21.916;2022-09-16T14:53:59;984.0;;;20.8;79.0
53940;BME280;39850;43.324;21.916;2022-09-16T14:58:36;984.0;;;20.8;78.0
53940;BME280;39850;43.324;21.916;2022-09-16T15:03:38;984.0;;;20.8;78.0
53940;BME280;39850;43.324;21.916;2022-09-16T15:08:43;984.0;;;20.8;78.0
53940;BME280;39850;43.324;21.916;2022-09-16T15:13:38;984.0;;;20.8;78.0
53940;BME280;39850;43.324;21.916;2022-09-16T15:18:33;984.0;;;20.8;78.0
53940;BME280;39850;43.324;21.916;2022-09-16T15:23:27;984.0;;;20.8;78.0
53940;BME280;39850;43.324;21.916;2022-09-16T15:28:18;984.0;;;20.8;78.0
53940;BME280;39850;43.324;21.916;2022-09-16T15:32:56;984.0;;;20.8;78.0
53940;BME280;39850;43.324;21.916;2022-09-16T15:37:34;984.0;;;20.8;78.0
53940;BME280;39850;43.324;21.916;2022-09-16T16:11:35;983.0;;;20.9;75.0
53940;BME280;39850;43.324;21.916;2022-09-16T16:16:18;983.0;;;20.9;75.0
53940;BME280;39850;43.324;21.916;2022-09-16T16:20:56;984.0;;;20.8;75.0
53940;BME280;39850;43.324;21.916;2022-09-16T16:25:33;984.0;;;20.8;75.0
53940;BME280;39850;43.324;21.916;2022-09-16T16:30:13;983.0;;;20.8;75.0
53940;BME280;39850;43.324;21.916;2022-09-16T16:34:51;983.0;;;20.8;75.0
53940;BME280;39850;43.324;21.916;2022-09-16T16:39:29;984.0;;;20.8;75.0
53940;BME280;39850;43.324;21.916;2022-09-16T16:44:06;984.0;;;20.8;75.0
53940;BME280;39850;43.324;21.916;2022-09-16T16:48:43;983.0;;;20.8;75.0
53940;BME280;39850;43.324;21.916;2022-09-16T16:53:20;983.0;;;20.8;75.0
53940;BME280;39850;43.324;21.916;2022-09-16T16:57:56;983.0;;;20.8;75.0
53940;BME280;39850;43.324;21.916;2022-09-16T17:30:30;983.0;;;20.8;74.0
53940;BME280;39850;43.324;21.916;2022-09-16T17:35:08;983.0;;;20.8;74.0
53940;BME280;39850;43.324;21.916;2022-09-16T17:39:45;983.0;;;20.8;74.0
53940;BME280;39850;43.324;21.916;2022-09-16T17:44:23;983.0;;;20.8;74.0
53940;BME280;39850;43.324;21.916;2022-09-16T17:49:07;983.0;;;20.8;74.0
53940;BME280;39850;43.324;21.916;2022-09-16T17:53:50;983.0;;;20.8;74.0
53940;BME280;39850;43.324;21.916;2022-09-16T17:58:27;983.0;;;20.8;73.0
53940;BME280;39850;43.324;21.916;2022-09-16T18:03:05;983.0;;;20.8;73.0
53940;BME280;39850;43.324;21.916;2022-09-16T18:07:45;983.0;;;20.8;73.0
53940;BME280;39850;43.324;21.916;2022-09-16T18:12:22;983.0;;;20.8;73.0
53940;BME280;39850;43.324;21.916;2022-09-16T18:17:00;983.0;;;20.8;73.0
53940;BME280;39850;43.324;21.916;2022-09-16T18:49:52;983.0;;;20.7;76.0
53940;BME280;39850;43.324;21.916;2022-09-16T18:54:30;983.0;;;20.7;76.0
53940;BME280;39850;43.324;21.916;2022-09-16T18:59:25;983.0;;;20.2;76.0
53940;BME280;39850;43.324;21.916;2022-09-16T19:04:12;983.0;;;20.2;76.0
53940;BME280;39850;43.324;21.916;2022-09-16T19:08:50;983.0;;;19.8;77.0
53940;BME280;39850;43.324;21.916;2022-09-16T19:13:28;983.0;;;19.8;77.0
53940;BME280;39850;43.324;21.916;2022-09-16T19:18:05;983.0;;;19.8;77.0
53940;BME280;39850;43.324;21.916;2022-09-16T19:22:42;983.0;;;19.8;77.0
53940;BME280;39850;43.324;21.916;2022-09-16T19:27:19;983.0;;;19.8;77.0
53940;BME280;39850;43.324;21.916;2022-09-16T19:31:56;983.0;;;19.8;77.0
53940;BME280;39850;43.324;21.916;2022-09-16T19:36:38;983.0;;;19.8;77.0
53940;BME280;39850;43.324;21.916;2022-09-16T20:09:22;983.0;;;19.8;79.0
53940;BME280;39850;43.324;21.916;2022-09-16T20:14:11;983.0;;;19.8;79.0
53940;BME280;39850;43.324;21.916;2022-09-16T20:18:54;983.0;;;19.8;79.0
53940;BME280;39850;43.324;21.916;2022-09-16T20:23:34;983.0;;;19.8;79.0
53940;BME280;39850;43.324;21.916;2022-09-16T20:28:11;983.0;;;19.8;79.0
53940;BME280;39850;43.324;21.916;2022-09-16T20:32:48;983.0;;;19.8;80.0
53940;BME280;39850;43.324;21.916;2022-09-16T20:37:25;983.0;;;19.8;80.0
53940;BME280;39850;43.324;21.916;2022-09-16T20:42:02;983.0;;;19.9;80.0
53940;BME280;39850;43.324;21.916;2022-09-16T20:46:40;983.0;;;19.9;80.0
53940;BME280;39850;43.324;21.916;2022-09-16T20:51:26;983.0;;;20.0;80.0
53940;BME280;39850;43.324;21.916;2022-09-16T20:56:15;983.0;;;20.0;80.0
53940;BME280;39850;43.324;21.916;2022-09-16T21:33:39;982.0;;;19.1;84.0
53940;BME280;39850;43.324;21.916;2022-09-16T21:38:16;982.0;;;19.1;84.0
53940;BME280;39850;43.324;21.916;2022-09-16T21:42:53;982.0;;;18.6;85.0
53940;BME280;39850;43.324;21.916;2022-09-16T21:47:31;982.0;;;18.6;85.0
53940;BME280;39850;43.324;21.916;2022-09-16T21:52:09;982.0;;;18.7;85.0
53940;BME280;39850;43.324;21.916;2022-09-16T21:56:51;982.0;;;18.7;85.0
53940;BME280;39850;43.324;21.916;2022-09-16T22:01:31;982.0;;;18.4;85.0
53940;BME280;39850;43.324;21.916;2022-09-16T22:06:15;982.0;;;18.4;85.0
53940;BME280;39850;43.324;21.916;2022-09-16T22:10:52;982.0;;;18.7;85.0
53940;BME280;39850;43.324;21.916;2022-09-16T22:15:28;982.0;;;18.7;85.0
53940;BME280;39850;43.324;21.916;2022-09-16T22:52:31;982.0;;;18.0;86.0
53940;BME280;39850;43.324;21.916;2022-09-16T22:57:08;982.0;;;18.0;86.0
53940;BME280;39850;43.324;21.916;2022-09-16T23:01:47;982.0;;;18.0;86.0
53940;BME280;39850;43.324;21.916;2022-09-16T23:06:33;982.0;;;18.0;86.0
53940;BME280;39850;43.324;21.916;2022-09-16T23:11:21;982.0;;;18.0;86.0
53940;BME280;39850;43.324;21.916;2022-09-16T23:16:05;982.0;;;18.0;86.0
53940;BME280;39850;43.324;21.916;2022-09-16T23:20:42;982.0;;;18.0;86.0
53940;BME280;39850;43.324;21.916;2022-09-16T23:25:19;982.0;;;18.0;86.0
53940;BME280;39850;43.324;21.916;2022-09-16T23:29:56;982.0;;;18.0;86.0
53940;BME280;39850;43.324;21.916;2022-09-16T23:34:33;982.0;;;18.0;86.0
53940;BME280;39850;43.324;21.916;2022-09-16T23:39:16;982.0;;;18.0;86.0
